Guararapes, Brazil
Current Conditions -  °F | °C
As of 2:00 AM on Friday 19 Dec 2014 (Local Time) from SBDN Reporting Station
Clear Clear  
Wind Chill: 75°   Ceiling: Unl
Heat Index: 75°   Visibility: 6mi
Dew Point: 66°   Wind: 0mph
Humidity: 73%   Direction: NA
Pressure: 29.83"   Gusts: NA
Location:  21.25°S, 50.65°W
Report Text: SBDN 190400Z 00000KT CAVOK 24/19 Q1010
Loading
Personal Weather Stations






























Interactive Weather Map New forecast layout! Learn more

10-Day Weather Forecast

Advertisements
Track Severe Weather on mobile